sensor_id;sensor_type;location;lat;lon;timestamp;P1;durP1;ratioP1;P2;durP2;ratioP2
21258;SDS011;10787;53.364;-1.480;2023-04-23T00:01:05;30.70;;;22.20;;
21258;SDS011;10787;53.364;-1.480;2023-04-23T00:03:51;32.00;;;22.37;;
21258;SDS011;10787;53.364;-1.480;2023-04-23T00:06:41;35.87;;;22.93;;
21258;SDS011;10787;53.364;-1.480;2023-04-23T00:09:25;35.13;;;24.03;;
21258;SDS011;10787;53.364;-1.480;2023-04-23T00:12:12;34.37;;;23.50;;
21258;SDS011;10787;53.364;-1.480;2023-04-23T00:14:57;33.33;;;24.20;;
21258;SDS011;10787;53.364;-1.480;2023-04-23T00:17:42;33.90;;;24.50;;
21258;SDS011;10787;53.364;-1.480;2023-04-23T00:20:26;37.03;;;25.30;;
21258;SDS011;10787;53.364;-1.480;2023-04-23T00:23:10;34.70;;;24.53;;
21258;SDS011;10787;53.364;-1.480;2023-04-23T00:25:55;41.13;;;27.23;;
21258;SDS011;10787;53.364;-1.480;2023-04-23T00:28:39;39.83;;;26.47;;
21258;SDS011;10787;53.364;-1.480;2023-04-23T00:31:23;38.33;;;27.43;;
21258;SDS011;10787;53.364;-1.480;2023-04-23T00:34:09;42.60;;;27.60;;
21258;SDS011;10787;53.364;-1.480;2023-04-23T00:36:54;38.83;;;27.27;;
21258;SDS011;10787;53.364;-1.480;2023-04-23T00:39:38;39.10;;;27.00;;
21258;SDS011;10787;53.364;-1.480;2023-04-23T00:42:24;39.60;;;27.10;;
21258;SDS011;10787;53.364;-1.480;2023-04-23T00:45:09;40.57;;;27.63;;
21258;SDS011;10787;53.364;-1.480;2023-04-23T00:47:55;41.63;;;27.53;;
21258;SDS011;10787;53.364;-1.480;2023-04-23T00:50:40;39.17;;;27.80;;
21258;SDS011;10787;53.364;-1.480;2023-04-23T00:53:25;39.43;;;27.10;;
21258;SDS011;10787;53.364;-1.480;2023-04-23T00:56:10;39.97;;;28.23;;
21258;SDS011;10787;53.364;-1.480;2023-04-23T00:58:54;39.83;;;28.17;;
21258;SDS011;10787;53.364;-1.480;2023-04-23T01:01:40;42.43;;;28.80;;
21258;SDS011;10787;53.364;-1.480;2023-04-23T01:04:26;40.40;;;28.47;;
21258;SDS011;10787;53.364;-1.480;2023-04-23T01:07:12;43.53;;;29.07;;
21258;SDS011;10787;53.364;-1.480;2023-04-23T01:09:56;42.47;;;28.53;;
21258;SDS011;10787;53.364;-1.480;2023-04-23T01:12:41;43.83;;;30.17;;
21258;SDS011;10787;53.364;-1.480;2023-04-23T01:15:26;46.67;;;31.23;;
21258;SDS011;10787;53.364;-1.480;2023-04-23T01:18:10;46.07;;;31.40;;
21258;SDS011;10787;53.364;-1.480;2023-04-23T01:20:55;44.30;;;29.83;;
21258;SDS011;10787;53.364;-1.480;2023-04-23T01:23:40;44.60;;;30.77;;
21258;SDS011;10787;53.364;-1.480;2023-04-23T01:26:24;47.87;;;31.93;;
21258;SDS011;10787;53.364;-1.480;2023-04-23T01:29:08;44.73;;;30.60;;
21258;SDS011;10787;53.364;-1.480;2023-04-23T01:31:54;47.50;;;31.37;;
21258;SDS011;10787;53.364;-1.480;2023-04-23T01:34:39;48.33;;;31.83;;
21258;SDS011;10787;53.364;-1.480;2023-04-23T01:37:24;51.33;;;33.00;;
21258;SDS011;10787;53.364;-1.480;2023-04-23T01:40:10;51.13;;;33.27;;
21258;SDS011;10787;53.364;-1.480;2023-04-23T01:42:55;49.60;;;31.83;;
21258;SDS011;10787;53.364;-1.480;2023-04-23T01:45:40;51.07;;;33.13;;
21258;SDS011;10787;53.364;-1.480;2023-04-23T01:48:24;51.00;;;32.47;;
21258;SDS011;10787;53.364;-1.480;2023-04-23T01:51:09;49.50;;;32.53;;
21258;SDS011;10787;53.364;-1.480;2023-04-23T01:53:53;53.07;;;33.17;;
21258;SDS011;10787;53.364;-1.480;2023-04-23T01:56:38;49.00;;;33.47;;
21258;SDS011;10787;53.364;-1.480;2023-04-23T01:59:22;49.33;;;32.77;;
21258;SDS011;10787;53.364;-1.480;2023-04-23T02:02:06;49.70;;;32.87;;
21258;SDS011;10787;53.364;-1.480;2023-04-23T02:04:56;48.97;;;32.70;;
21258;SDS011;10787;53.364;-1.480;2023-04-23T02:07:43;50.27;;;32.63;;
21258;SDS011;10787;53.364;-1.480;2023-04-23T02:10:29;51.53;;;33.03;;
21258;SDS011;10787;53.364;-1.480;2023-04-23T02:13:14;50.77;;;33.23;;
21258;SDS011;10787;53.364;-1.480;2023-04-23T02:15:58;50.20;;;32.43;;
21258;SDS011;10787;53.364;-1.480;2023-04-23T02:18:43;50.27;;;32.83;;
21258;SDS011;10787;53.364;-1.480;2023-04-23T02:21:28;48.27;;;31.67;;
21258;SDS011;10787;53.364;-1.480;2023-04-23T02:24:12;45.60;;;31.53;;
21258;SDS011;10787;53.364;-1.480;2023-04-23T02:26:56;48.87;;;31.60;;
21258;SDS011;10787;53.364;-1.480;2023-04-23T02:29:41;47.70;;;31.63;;
21258;SDS011;10787;53.364;-1.480;2023-04-23T02:32:25;43.33;;;28.83;;
21258;SDS011;10787;53.364;-1.480;2023-04-23T02:35:10;40.43;;;27.63;;
21258;SDS011;10787;53.364;-1.480;2023-04-23T02:37:55;39.57;;;26.73;;
21258;SDS011;10787;53.364;-1.480;2023-04-23T02:40:39;42.17;;;27.60;;
21258;SDS011;10787;53.364;-1.480;2023-04-23T02:43:24;44.87;;;28.63;;
21258;SDS011;10787;53.364;-1.480;2023-04-23T02:46:08;44.73;;;28.53;;
21258;SDS011;10787;53.364;-1.480;2023-04-23T02:48:52;42.10;;;27.10;;
21258;SDS011;10787;53.364;-1.480;2023-04-23T02:51:36;44.87;;;28.60;;
21258;SDS011;10787;53.364;-1.480;2023-04-23T02:54:20;42.30;;;29.27;;
21258;SDS011;10787;53.364;-1.480;2023-04-23T02:57:05;42.30;;;29.17;;
21258;SDS011;10787;53.364;-1.480;2023-04-23T02:59:49;44.80;;;29.40;;
21258;SDS011;10787;53.364;-1.480;2023-04-23T03:02:34;42.43;;;28.67;;
21258;SDS011;10787;53.364;-1.480;2023-04-23T03:05:18;42.20;;;28.90;;
21258;SDS011;10787;53.364;-1.480;2023-04-23T03:08:02;43.40;;;29.30;;
21258;SDS011;10787;53.364;-1.480;2023-04-23T03:10:50;41.77;;;29.30;;
21258;SDS011;10787;53.364;-1.480;2023-04-23T03:13:50;41.90;;;29.13;;
21258;SDS011;10787;53.364;-1.480;2023-04-23T03:16:34;43.23;;;29.93;;
21258;SDS011;10787;53.364;-1.480;2023-04-23T03:19:18;43.93;;;29.50;;
21258;SDS011;10787;53.364;-1.480;2023-04-23T03:22:03;41.87;;;29.43;;
21258;SDS011;10787;53.364;-1.480;2023-04-23T03:24:48;42.07;;;28.30;;
21258;SDS011;10787;53.364;-1.480;2023-04-23T03:27:32;43.97;;;29.77;;
21258;SDS011;10787;53.364;-1.480;2023-04-23T03:30:17;41.70;;;27.87;;
21258;SDS011;10787;53.364;-1.480;2023-04-23T03:33:02;42.77;;;29.13;;
21258;SDS011;10787;53.364;-1.480;2023-04-23T03:35:46;43.43;;;29.50;;
21258;SDS011;10787;53.364;-1.480;2023-04-23T03:38:31;43.43;;;29.37;;
21258;SDS011;10787;53.364;-1.480;2023-04-23T03:41:16;42.23;;;29.57;;
21258;SDS011;10787;53.364;-1.480;2023-04-23T03:44:00;43.40;;;29.00;;
21258;SDS011;10787;53.364;-1.480;2023-04-23T03:46:44;45.53;;;30.23;;
21258;SDS011;10787;53.364;-1.480;2023-04-23T03:49:28;48.37;;;31.47;;
21258;SDS011;10787;53.364;-1.480;2023-04-23T03:52:13;47.23;;;31.40;;
21258;SDS011;10787;53.364;-1.480;2023-04-23T03:54:57;45.57;;;31.70;;
21258;SDS011;10787;53.364;-1.480;2023-04-23T03:57:41;46.53;;;31.27;;
21258;SDS011;10787;53.364;-1.480;2023-04-23T04:00:25;49.20;;;32.13;;
21258;SDS011;10787;53.364;-1.480;2023-04-23T04:03:10;49.53;;;32.53;;
21258;SDS011;10787;53.364;-1.480;2023-04-23T04:05:54;47.37;;;31.33;;
21258;SDS011;10787;53.364;-1.480;2023-04-23T04:08:38;50.73;;;32.10;;
21258;SDS011;10787;53.364;-1.480;2023-04-23T04:11:22;51.53;;;33.83;;
21258;SDS011;10787;53.364;-1.480;2023-04-23T04:14:07;50.73;;;32.73;;
21258;SDS011;10787;53.364;-1.480;2023-04-23T04:16:51;48.93;;;33.17;;
21258;SDS011;10787;53.364;-1.480;2023-04-23T04:19:35;50.07;;;32.10;;
21258;SDS011;10787;53.364;-1.480;2023-04-23T04:22:19;47.03;;;31.23;;
21258;SDS011;10787;53.364;-1.480;2023-04-23T04:25:04;44.53;;;30.13;;
21258;SDS011;10787;53.364;-1.480;2023-04-23T04:27:49;49.27;;;31.37;;
21258;SDS011;10787;53.364;-1.480;2023-04-23T04:30:34;48.10;;;31.23;;
21258;SDS011;10787;53.364;-1.480;2023-04-23T04:33:19;48.77;;;31.83;;
21258;SDS011;10787;53.364;-1.480;2023-04-23T04:36:04;47.60;;;31.00;;
21258;SDS011;10787;53.364;-1.480;2023-04-23T04:38:48;48.53;;;31.30;;
21258;SDS011;10787;53.364;-1.480;2023-04-23T04:41:35;53.17;;;32.23;;
21258;SDS011;10787;53.364;-1.480;2023-04-23T04:44:20;47.93;;;30.53;;
21258;SDS011;10787;53.364;-1.480;2023-04-23T04:47:05;45.97;;;30.00;;
21258;SDS011;10787;53.364;-1.480;2023-04-23T04:49:52;49.70;;;30.40;;
21258;SDS011;10787;53.364;-1.480;2023-04-23T04:52:40;44.90;;;30.03;;
21258;SDS011;10787;53.364;-1.480;2023-04-23T04:55:24;46.63;;;29.77;;
21258;SDS011;10787;53.364;-1.480;2023-04-23T04:58:09;48.90;;;31.13;;
21258;SDS011;10787;53.364;-1.480;2023-04-23T05:00:54;51.73;;;33.60;;
21258;SDS011;10787;53.364;-1.480;2023-04-23T05:03:39;51.30;;;33.00;;
21258;SDS011;10787;53.364;-1.480;2023-04-23T05:06:23;55.37;;;33.37;;
21258;SDS011;10787;53.364;-1.480;2023-04-23T05:09:08;50.80;;;32.20;;
21258;SDS011;10787;53.364;-1.480;2023-04-23T05:11:53;53.70;;;32.67;;
21258;SDS011;10787;53.364;-1.480;2023-04-23T05:14:38;52.13;;;33.03;;
21258;SDS011;10787;53.364;-1.480;2023-04-23T05:17:22;54.27;;;34.30;;
21258;SDS011;10787;53.364;-1.480;2023-04-23T05:20:07;53.00;;;34.10;;
21258;SDS011;10787;53.364;-1.480;2023-04-23T05:22:55;53.17;;;33.70;;
21258;SDS011;10787;53.364;-1.480;2023-04-23T05:25:42;55.00;;;35.70;;
21258;SDS011;10787;53.364;-1.480;2023-04-23T05:28:26;51.57;;;33.27;;
21258;SDS011;10787;53.364;-1.480;2023-04-23T05:31:10;49.50;;;31.20;;
21258;SDS011;10787;53.364;-1.480;2023-04-23T05:33:54;49.70;;;31.57;;
21258;SDS011;10787;53.364;-1.480;2023-04-23T05:36:38;49.80;;;31.23;;
21258;SDS011;10787;53.364;-1.480;2023-04-23T05:39:23;49.87;;;32.07;;
21258;SDS011;10787;53.364;-1.480;2023-04-23T05:42:07;47.77;;;31.03;;
21258;SDS011;10787;53.364;-1.480;2023-04-23T05:44:51;44.87;;;29.20;;
21258;SDS011;10787;53.364;-1.480;2023-04-23T05:47:35;42.47;;;28.37;;
21258;SDS011;10787;53.364;-1.480;2023-04-23T05:50:20;42.67;;;28.50;;
21258;SDS011;10787;53.364;-1.480;2023-04-23T05:53:04;41.97;;;29.07;;
21258;SDS011;10787;53.364;-1.480;2023-04-23T05:55:49;41.53;;;28.53;;
21258;SDS011;10787;53.364;-1.480;2023-04-23T05:58:33;44.93;;;28.90;;
21258;SDS011;10787;53.364;-1.480;2023-04-23T06:01:18;40.73;;;27.63;;
21258;SDS011;10787;53.364;-1.480;2023-04-23T06:04:02;43.37;;;28.67;;
21258;SDS011;10787;53.364;-1.480;2023-04-23T06:06:47;41.57;;;27.27;;
21258;SDS011;10787;53.364;-1.480;2023-04-23T06:09:31;41.60;;;28.60;;
21258;SDS011;10787;53.364;-1.480;2023-04-23T06:12:15;41.90;;;29.13;;
21258;SDS011;10787;53.364;-1.480;2023-04-23T06:15:00;39.17;;;26.77;;
21258;SDS011;10787;53.364;-1.480;2023-04-23T06:17:44;40.70;;;27.03;;
21258;SDS011;10787;53.364;-1.480;2023-04-23T06:20:28;40.70;;;27.03;;
21258;SDS011;10787;53.364;-1.480;2023-04-23T06:23:13;36.50;;;25.53;;
21258;SDS011;10787;53.364;-1.480;2023-04-23T06:25:57;39.27;;;25.40;;
21258;SDS011;10787;53.364;-1.480;2023-04-23T06:28:41;38.03;;;24.70;;
21258;SDS011;10787;53.364;-1.480;2023-04-23T06:31:28;37.80;;;25.60;;
21258;SDS011;10787;53.364;-1.480;2023-04-23T06:34:13;38.77;;;26.03;;
21258;SDS011;10787;53.364;-1.480;2023-04-23T06:36:57;36.27;;;25.70;;
21258;SDS011;10787;53.364;-1.480;2023-04-23T06:39:41;39.10;;;26.33;;
21258;SDS011;10787;53.364;-1.480;2023-04-23T06:42:26;43.03;;;27.60;;
21258;SDS011;10787;53.364;-1.480;2023-04-23T06:45:10;40.80;;;27.10;;
21258;SDS011;10787;53.364;-1.480;2023-04-23T06:47:54;39.93;;;26.77;;
21258;SDS011;10787;53.364;-1.480;2023-04-23T06:50:39;42.93;;;27.73;;
21258;SDS011;10787;53.364;-1.480;2023-04-23T06:53:23;41.83;;;27.87;;
21258;SDS011;10787;53.364;-1.480;2023-04-23T06:56:07;41.10;;;28.10;;
21258;SDS011;10787;53.364;-1.480;2023-04-23T06:58:51;43.27;;;28.63;;
21258;SDS011;10787;53.364;-1.480;2023-04-23T07:01:36;43.43;;;27.47;;
21258;SDS011;10787;53.364;-1.480;2023-04-23T07:04:20;44.47;;;28.53;;
21258;SDS011;10787;53.364;-1.480;2023-04-23T07:07:05;46.27;;;28.27;;
21258;SDS011;10787;53.364;-1.480;2023-04-23T07:09:49;45.23;;;29.90;;
21258;SDS011;10787;53.364;-1.480;2023-04-23T07:12:33;41.37;;;27.57;;
21258;SDS011;10787;53.364;-1.480;2023-04-23T07:15:19;42.27;;;28.27;;
21258;SDS011;10787;53.364;-1.480;2023-04-23T07:18:03;41.37;;;27.93;;
21258;SDS011;10787;53.364;-1.480;2023-04-23T07:20:49;38.73;;;27.37;;
21258;SDS011;10787;53.364;-1.480;2023-04-23T07:23:33;35.07;;;24.80;;
21258;SDS011;10787;53.364;-1.480;2023-04-23T07:26:18;36.00;;;24.30;;
21258;SDS011;10787;53.364;-1.480;2023-04-23T07:29:03;38.90;;;24.87;;
21258;SDS011;10787;53.364;-1.480;2023-04-23T07:31:50;33.13;;;23.10;;
21258;SDS011;10787;53.364;-1.480;2023-04-23T07:34:34;33.53;;;23.37;;
21258;SDS011;10787;53.364;-1.480;2023-04-23T07:37:19;35.83;;;23.33;;
21258;SDS011;10787;53.364;-1.480;2023-04-23T07:40:04;35.60;;;24.10;;
21258;SDS011;10787;53.364;-1.480;2023-04-23T07:42:50;30.13;;;22.10;;
21258;SDS011;10787;53.364;-1.480;2023-04-23T07:45:34;33.17;;;22.10;;
21258;SDS011;10787;53.364;-1.480;2023-04-23T07:48:18;30.17;;;21.53;;
21258;SDS011;10787;53.364;-1.480;2023-04-23T07:51:03;31.17;;;21.07;;
21258;SDS011;10787;53.364;-1.480;2023-04-23T07:53:49;31.27;;;21.43;;
21258;SDS011;10787;53.364;-1.480;2023-04-23T07:56:35;28.90;;;20.53;;
21258;SDS011;10787;53.364;-1.480;2023-04-23T07:59:20;29.87;;;19.83;;
21258;SDS011;10787;53.364;-1.480;2023-04-23T08:02:04;31.23;;;20.30;;
21258;SDS011;10787;53.364;-1.480;2023-04-23T08:04:49;27.80;;;20.23;;
21258;SDS011;10787;53.364;-1.480;2023-04-23T08:07:33;27.10;;;19.63;;
21258;SDS011;10787;53.364;-1.480;2023-04-23T08:10:18;27.93;;;19.27;;
21258;SDS011;10787;53.364;-1.480;2023-04-23T08:13:02;26.60;;;19.37;;
21258;SDS011;10787;53.364;-1.480;2023-04-23T08:15:47;25.23;;;18.60;;
21258;SDS011;10787;53.364;-1.480;2023-04-23T08:18:31;27.23;;;19.17;;
21258;SDS011;10787;53.364;-1.480;2023-04-23T08:21:16;25.63;;;18.40;;
21258;SDS011;10787;53.364;-1.480;2023-04-23T08:24:00;25.67;;;18.60;;
21258;SDS011;10787;53.364;-1.480;2023-04-23T08:26:47;25.37;;;18.00;;
21258;SDS011;10787;53.364;-1.480;2023-04-23T08:29:32;27.00;;;17.53;;
21258;SDS011;10787;53.364;-1.480;2023-04-23T08:32:16;25.27;;;18.50;;
21258;SDS011;10787;53.364;-1.480;2023-04-23T08:35:00;27.07;;;18.20;;
21258;SDS011;10787;53.364;-1.480;2023-04-23T08:37:45;23.50;;;17.70;;
21258;SDS011;10787;53.364;-1.480;2023-04-23T08:40:30;24.13;;;17.50;;
21258;SDS011;10787;53.364;-1.480;2023-04-23T08:43:15;24.33;;;18.00;;
21258;SDS011;10787;53.364;-1.480;2023-04-23T08:46:02;24.93;;;18.53;;
21258;SDS011;10787;53.364;-1.480;2023-04-23T08:48:47;23.67;;;17.23;;
21258;SDS011;10787;53.364;-1.480;2023-04-23T08:51:36;23.90;;;17.83;;
21258;SDS011;10787;53.364;-1.480;2023-04-23T08:54:26;26.13;;;17.97;;
21258;SDS011;10787;53.364;-1.480;2023-04-23T08:57:11;25.23;;;18.23;;
21258;SDS011;10787;53.364;-1.480;2023-04-23T08:59:59;26.07;;;18.23;;
21258;SDS011;10787;53.364;-1.480;2023-04-23T09:02:48;27.20;;;19.67;;
21258;SDS011;10787;53.364;-1.480;2023-04-23T09:05:32;29.00;;;19.27;;
21258;SDS011;10787;53.364;-1.480;2023-04-23T09:08:19;27.37;;;19.60;;
21258;SDS011;10787;53.364;-1.480;2023-04-23T09:11:04;27.40;;;19.67;;
21258;SDS011;10787;53.364;-1.480;2023-04-23T09:13:49;27.77;;;19.50;;
21258;SDS011;10787;53.364;-1.480;2023-04-23T09:16:34;26.60;;;19.17;;
21258;SDS011;10787;53.364;-1.480;2023-04-23T09:19:19;27.80;;;19.87;;
21258;SDS011;10787;53.364;-1.480;2023-04-23T09:22:03;28.90;;;20.07;;
21258;SDS011;10787;53.364;-1.480;2023-04-23T09:24:48;29.20;;;20.20;;
21258;SDS011;10787;53.364;-1.480;2023-04-23T09:27:32;29.67;;;22.10;;
21258;SDS011;10787;53.364;-1.480;2023-04-23T09:30:17;29.53;;;21.03;;
21258;SDS011;10787;53.364;-1.480;2023-04-23T09:33:02;30.33;;;21.23;;
21258;SDS011;10787;53.364;-1.480;2023-04-23T09:35:48;30.27;;;21.10;;
21258;SDS011;10787;53.364;-1.480;2023-04-23T09:38:32;31.17;;;21.13;;
21258;SDS011;10787;53.364;-1.480;2023-04-23T09:41:24;30.00;;;20.67;;
21258;SDS011;10787;53.364;-1.480;2023-04-23T09:44:10;29.93;;;21.73;;
21258;SDS011;10787;53.364;-1.480;2023-04-23T09:47:04;32.50;;;22.00;;
21258;SDS011;10787;53.364;-1.480;2023-04-23T09:49:52;31.03;;;21.53;;
21258;SDS011;10787;53.364;-1.480;2023-04-23T09:52:37;30.47;;;21.43;;
21258;SDS011;10787;53.364;-1.480;2023-04-23T09:55:26;28.80;;;21.27;;
21258;SDS011;10787;53.364;-1.480;2023-04-23T09:58:17;30.53;;;21.57;;
21258;SDS011;10787;53.364;-1.480;2023-04-23T10:01:08;27.77;;;20.53;;
21258;SDS011;10787;53.364;-1.480;2023-04-23T10:03:52;27.23;;;20.80;;
21258;SDS011;10787;53.364;-1.480;2023-04-23T10:06:38;30.40;;;20.60;;
21258;SDS011;10787;53.364;-1.480;2023-04-23T10:09:24;28.60;;;20.43;;
21258;SDS011;10787;53.364;-1.480;2023-04-23T10:12:10;26.80;;;20.53;;
21258;SDS011;10787;53.364;-1.480;2023-04-23T10:14:56;28.87;;;20.20;;
21258;SDS011;10787;53.364;-1.480;2023-04-23T10:17:42;28.40;;;19.43;;
21258;SDS011;10787;53.364;-1.480;2023-04-23T10:20:28;26.10;;;19.83;;
21258;SDS011;10787;53.364;-1.480;2023-04-23T10:23:13;30.00;;;21.53;;
21258;SDS011;10787;53.364;-1.480;2023-04-23T10:25:59;26.90;;;20.53;;
21258;SDS011;10787;53.364;-1.480;2023-04-23T10:28:46;29.73;;;21.50;;
21258;SDS011;10787;53.364;-1.480;2023-04-23T10:31:33;30.93;;;20.57;;
21258;SDS011;10787;53.364;-1.480;2023-04-23T10:34:19;27.93;;;20.90;;
21258;SDS011;10787;53.364;-1.480;2023-04-23T10:37:04;31.70;;;21.27;;
21258;SDS011;10787;53.364;-1.480;2023-04-23T10:39:52;26.67;;;20.33;;
21258;SDS011;10787;53.364;-1.480;2023-04-23T10:42:39;28.67;;;21.07;;
21258;SDS011;10787;53.364;-1.480;2023-04-23T10:45:25;28.53;;;20.57;;
21258;SDS011;10787;53.364;-1.480;2023-04-23T10:48:13;31.30;;;21.47;;
21258;SDS011;10787;53.364;-1.480;2023-04-23T10:50:58;29.43;;;21.53;;
21258;SDS011;10787;53.364;-1.480;2023-04-23T10:53:58;28.43;;;20.27;;
21258;SDS011;10787;53.364;-1.480;2023-04-23T10:56:42;30.40;;;20.07;;
21258;SDS011;10787;53.364;-1.480;2023-04-23T10:59:26;27.37;;;20.73;;
21258;SDS011;10787;53.364;-1.480;2023-04-23T11:02:15;29.37;;;21.00;;
21258;SDS011;10787;53.364;-1.480;2023-04-23T11:04:59;28.77;;;21.13;;
21258;SDS011;10787;53.364;-1.480;2023-04-23T11:08:05;30.43;;;21.00;;
21258;SDS011;10787;53.364;-1.480;2023-04-23T11:37:20;20.70;;;15.43;;
21258;SDS011;10787;53.364;-1.480;2023-04-23T11:40:05;22.37;;;16.00;;
21258;SDS011;10787;53.364;-1.480;2023-04-23T11:42:53;24.20;;;16.53;;
21258;SDS011;10787;53.364;-1.480;2023-04-23T11:45:39;22.77;;;16.07;;
21258;SDS011;10787;53.364;-1.480;2023-04-23T11:48:23;22.33;;;16.63;;
21258;SDS011;10787;53.364;-1.480;2023-04-23T11:51:08;26.70;;;17.87;;
21258;SDS011;10787;53.364;-1.480;2023-04-23T11:53:52;21.10;;;15.90;;
21258;SDS011;10787;53.364;-1.480;2023-04-23T11:56:37;22.73;;;16.20;;
21258;SDS011;10787;53.364;-1.480;2023-04-23T11:59:22;23.50;;;16.20;;
21258;SDS011;10787;53.364;-1.480;2023-04-23T12:02:06;21.03;;;16.03;;
21258;SDS011;10787;53.364;-1.480;2023-04-23T12:04:51;23.53;;;16.47;;
21258;SDS011;10787;53.364;-1.480;2023-04-23T12:07:37;21.27;;;15.87;;
21258;SDS011;10787;53.364;-1.480;2023-04-23T12:10:21;22.60;;;16.20;;
21258;SDS011;10787;53.364;-1.480;2023-04-23T12:13:10;21.73;;;16.50;;
21258;SDS011;10787;53.364;-1.480;2023-04-23T12:15:57;24.23;;;17.33;;
21258;SDS011;10787;53.364;-1.480;2023-04-23T12:18:43;22.43;;;16.30;;
21258;SDS011;10787;53.364;-1.480;2023-04-23T12:21:28;24.20;;;16.93;;
21258;SDS011;10787;53.364;-1.480;2023-04-23T12:24:12;22.33;;;16.17;;
21258;SDS011;10787;53.364;-1.480;2023-04-23T12:26:59;22.47;;;16.43;;
21258;SDS011;10787;53.364;-1.480;2023-04-23T12:29:44;24.63;;;16.40;;
21258;SDS011;10787;53.364;-1.480;2023-04-23T12:32:33;24.77;;;16.77;;
21258;SDS011;10787;53.364;-1.480;2023-04-23T12:35:18;25.30;;;17.20;;
21258;SDS011;10787;53.364;-1.480;2023-04-23T12:38:06;19.23;;;13.63;;
21258;SDS011;10787;53.364;-1.480;2023-04-23T12:40:54;22.20;;;14.03;;
21258;SDS011;10787;53.364;-1.480;2023-04-23T12:43:41;18.87;;;13.60;;
21258;SDS011;10787;53.364;-1.480;2023-04-23T12:46:25;18.67;;;13.67;;
21258;SDS011;10787;53.364;-1.480;2023-04-23T12:49:09;17.97;;;12.83;;
21258;SDS011;10787;53.364;-1.480;2023-04-23T12:51:57;17.23;;;12.50;;
21258;SDS011;10787;53.364;-1.480;2023-04-23T12:54:43;18.53;;;12.17;;
21258;SDS011;10787;53.364;-1.480;2023-04-23T12:57:28;21.13;;;13.20;;
21258;SDS011;10787;53.364;-1.480;2023-04-23T13:00:13;17.60;;;12.27;;
21258;SDS011;10787;53.364;-1.480;2023-04-23T13:02:57;47.17;;;27.57;;
21258;SDS011;10787;53.364;-1.480;2023-04-23T13:05:41;30.77;;;17.87;;
21258;SDS011;10787;53.364;-1.480;2023-04-23T13:08:26;78.50;;;38.47;;
21258;SDS011;10787;53.364;-1.480;2023-04-23T13:11:10;67.23;;;38.50;;
21258;SDS011;10787;53.364;-1.480;2023-04-23T13:13:54;44.10;;;26.83;;
21258;SDS011;10787;53.364;-1.480;2023-04-23T13:16:38;67.13;;;36.10;;
21258;SDS011;10787;53.364;-1.480;2023-04-23T13:19:23;28.73;;;18.33;;
21258;SDS011;10787;53.364;-1.480;2023-04-23T13:22:07;41.57;;;28.63;;
21258;SDS011;10787;53.364;-1.480;2023-04-23T13:24:52;50.43;;;34.57;;
21258;SDS011;10787;53.364;-1.480;2023-04-23T13:27:39;36.20;;;25.20;;
21258;SDS011;10787;53.364;-1.480;2023-04-23T13:30:23;78.70;;;39.67;;
21258;SDS011;10787;53.364;-1.480;2023-04-23T13:33:08;54.83;;;28.90;;
21258;SDS011;10787;53.364;-1.480;2023-04-23T13:35:52;51.93;;;28.53;;
21258;SDS011;10787;53.364;-1.480;2023-04-23T13:38:39;56.10;;;29.97;;
21258;SDS011;10787;53.364;-1.480;2023-04-23T13:41:23;66.17;;;36.60;;
21258;SDS011;10787;53.364;-1.480;2023-04-23T13:44:08;28.27;;;18.07;;
21258;SDS011;10787;53.364;-1.480;2023-04-23T13:46:52;83.47;;;47.70;;
21258;SDS011;10787;53.364;-1.480;2023-04-23T13:49:37;44.63;;;27.90;;
21258;SDS011;10787;53.364;-1.480;2023-04-23T13:52:21;28.63;;;17.67;;
21258;SDS011;10787;53.364;-1.480;2023-04-23T13:55:05;22.43;;;15.70;;
21258;SDS011;10787;53.364;-1.480;2023-04-23T13:57:50;27.17;;;18.00;;
21258;SDS011;10787;53.364;-1.480;2023-04-23T14:00:40;22.10;;;15.57;;
21258;SDS011;10787;53.364;-1.480;2023-04-23T14:03:25;24.10;;;15.43;;
21258;SDS011;10787;53.364;-1.480;2023-04-23T14:06:09;31.03;;;20.90;;
21258;SDS011;10787;53.364;-1.480;2023-04-23T14:08:54;39.47;;;23.10;;
21258;SDS011;10787;53.364;-1.480;2023-04-23T14:11:38;58.70;;;35.77;;
21258;SDS011;10787;53.364;-1.480;2023-04-23T14:14:24;32.97;;;20.90;;
21258;SDS011;10787;53.364;-1.480;2023-04-23T14:17:08;33.17;;;22.43;;
21258;SDS011;10787;53.364;-1.480;2023-04-23T14:19:52;29.90;;;19.57;;
21258;SDS011;10787;53.364;-1.480;2023-04-23T14:22:36;42.53;;;26.93;;
21258;SDS011;10787;53.364;-1.480;2023-04-23T14:25:34;52.20;;;30.57;;
21258;SDS011;10787;53.364;-1.480;2023-04-23T14:28:38;33.33;;;22.03;;
21258;SDS011;10787;53.364;-1.480;2023-04-23T14:31:27;37.13;;;21.27;;
21258;SDS011;10787;53.364;-1.480;2023-04-23T14:34:13;29.80;;;19.63;;
21258;SDS011;10787;53.364;-1.480;2023-04-23T14:36:57;22.50;;;17.17;;
21258;SDS011;10787;53.364;-1.480;2023-04-23T14:39:41;24.70;;;16.13;;
21258;SDS011;10787;53.364;-1.480;2023-04-23T14:42:25;20.50;;;14.53;;
21258;SDS011;10787;53.364;-1.480;2023-04-23T14:45:09;19.87;;;14.83;;
21258;SDS011;10787;53.364;-1.480;2023-04-23T14:47:54;25.43;;;17.17;;
21258;SDS011;10787;53.364;-1.480;2023-04-23T14:50:38;20.23;;;14.53;;
21258;SDS011;10787;53.364;-1.480;2023-04-23T14:53:22;19.67;;;13.73;;
21258;SDS011;10787;53.364;-1.480;2023-04-23T14:56:07;25.17;;;17.60;;
21258;SDS011;10787;53.364;-1.480;2023-04-23T14:58:51;22.90;;;15.13;;
21258;SDS011;10787;53.364;-1.480;2023-04-23T15:01:35;18.30;;;12.77;;
21258;SDS011;10787;53.364;-1.480;2023-04-23T15:04:20;20.40;;;14.13;;
21258;SDS011;10787;53.364;-1.480;2023-04-23T15:07:05;20.70;;;14.80;;
21258;SDS011;10787;53.364;-1.480;2023-04-23T15:09:50;19.93;;;13.80;;
21258;SDS011;10787;53.364;-1.480;2023-04-23T15:12:42;20.50;;;13.87;;
21258;SDS011;10787;53.364;-1.480;2023-04-23T15:15:42;16.77;;;13.15;;
21258;SDS011;10787;53.364;-1.480;2023-04-23T15:18:31;16.23;;;12.85;;
21258;SDS011;10787;53.364;-1.480;2023-04-23T15:21:16;15.07;;;11.43;;
21258;SDS011;10787;53.364;-1.480;2023-04-23T15:24:01;16.77;;;12.20;;
21258;SDS011;10787;53.364;-1.480;2023-04-23T15:26:45;16.08;;;12.43;;
21258;SDS011;10787;53.364;-1.480;2023-04-23T15:29:32;12.73;;;10.00;;
21258;SDS011;10787;53.364;-1.480;2023-04-23T15:32:16;12.95;;;9.98;;
21258;SDS011;10787;53.364;-1.480;2023-04-23T15:35:00;12.60;;;9.48;;
21258;SDS011;10787;53.364;-1.480;2023-04-23T15:37:45;12.07;;;9.20;;
21258;SDS011;10787;53.364;-1.480;2023-04-23T15:40:30;11.52;;;10.32;;
21258;SDS011;10787;53.364;-1.480;2023-04-23T15:43:15;14.05;;;10.38;;
21258;SDS011;10787;53.364;-1.480;2023-04-23T15:46:00;13.55;;;10.07;;
21258;SDS011;10787;53.364;-1.480;2023-04-23T15:48:44;12.73;;;9.88;;
21258;SDS011;10787;53.364;-1.480;2023-04-23T15:51:28;12.63;;;10.27;;
21258;SDS011;10787;53.364;-1.480;2023-04-23T15:54:14;12.73;;;9.73;;
21258;SDS011;10787;53.364;-1.480;2023-04-23T15:56:59;11.85;;;9.70;;
21258;SDS011;10787;53.364;-1.480;2023-04-23T15:59:44;11.27;;;9.18;;
21258;SDS011;10787;53.364;-1.480;2023-04-23T16:02:28;10.52;;;9.35;;
21258;SDS011;10787;53.364;-1.480;2023-04-23T16:05:12;10.25;;;8.77;;
21258;SDS011;10787;53.364;-1.480;2023-04-23T16:07:57;10.45;;;9.13;;
21258;SDS011;10787;53.364;-1.480;2023-04-23T16:10:42;20.85;;;16.25;;
21258;SDS011;10787;53.364;-1.480;2023-04-23T16:13:27;20.67;;;16.83;;
21258;SDS011;10787;53.364;-1.480;2023-04-23T16:16:12;13.80;;;11.00;;
21258;SDS011;10787;53.364;-1.480;2023-04-23T16:18:56;17.77;;;15.85;;